sensor_id;sensor_type;location;lat;lon;timestamp;P1;durP1;ratioP1;P2;durP2;ratioP2
39214;SDS011;24932;51.746;14.334;2023-07-31T00:00:40;13.05;;;4.07;;
39214;SDS011;24932;51.746;14.334;2023-07-31T00:04:40;5.25;;;4.68;;
39214;SDS011;24932;51.746;14.334;2023-07-31T00:08:40;12.18;;;4.85;;
39214;SDS011;24932;51.746;14.334;2023-07-31T00:12:42;6.25;;;4.45;;
39214;SDS011;24932;51.746;14.334;2023-07-31T00:16:41;7.82;;;4.7;;
39214;SDS011;24932;51.746;14.334;2023-07-31T00:20:40;10.35;;;5.3;;
39214;SDS011;24932;51.746;14.334;2023-07-31T00:24:41;8.5;;;4.43;;
39214;SDS011;24932;51.746;14.334;2023-07-31T00:28:41;9.4;;;4.57;;
39214;SDS011;24932;51.746;14.334;2023-07-31T00:32:40;7.1;;;4.68;;
39214;SDS011;24932;51.746;14.334;2023-07-31T00:36:41;8.8;;;5.1;;
39214;SDS011;24932;51.746;14.334;2023-07-31T00:40:40;10.57;;;5.2;;
39214;SDS011;24932;51.746;14.334;2023-07-31T00:44:40;10.38;;;5.12;;
39214;SDS011;24932;51.746;14.334;2023-07-31T00:48:40;10.07;;;4.8;;
39214;SDS011;24932;51.746;14.334;2023-07-31T00:52:40;10.15;;;4.72;;
39214;SDS011;24932;51.746;14.334;2023-07-31T00:56:40;6.37;;;4.55;;
39214;SDS011;24932;51.746;14.334;2023-07-31T01:00:40;11.0;;;5.55;;
39214;SDS011;24932;51.746;14.334;2023-07-31T01:08:40;16.05;;;4.5;;
39214;SDS011;24932;51.746;14.334;2023-07-31T01:12:40;10.1;;;4.82;;
39214;SDS011;24932;51.746;14.334;2023-07-31T01:16:41;15.88;;;5.0;;
39214;SDS011;24932;51.746;14.334;2023-07-31T01:20:41;8.95;;;4.85;;
39214;SDS011;24932;51.746;14.334;2023-07-31T01:24:42;11.85;;;4.53;;
39214;SDS011;24932;51.746;14.334;2023-07-31T01:28:44;7.87;;;4.15;;
39214;SDS011;24932;51.746;14.334;2023-07-31T01:32:40;6.0;;;4.03;;
39214;SDS011;24932;51.746;14.334;2023-07-31T01:36:41;15.15;;;3.62;;
39214;SDS011;24932;51.746;14.334;2023-07-31T01:40:41;12.02;;;3.6;;
39214;SDS011;24932;51.746;14.334;2023-07-31T01:44:40;7.85;;;3.2;;
39214;SDS011;24932;51.746;14.334;2023-07-31T01:48:41;8.85;;;2.92;;
39214;SDS011;24932;51.746;14.334;2023-07-31T01:52:40;8.27;;;3.67;;
39214;SDS011;24932;51.746;14.334;2023-07-31T01:56:41;12.8;;;3.3;;
39214;SDS011;24932;51.746;14.334;2023-07-31T02:00:40;6.47;;;2.83;;
39214;SDS011;24932;51.746;14.334;2023-07-31T02:04:40;7.45;;;3.1;;
39214;SDS011;24932;51.746;14.334;2023-07-31T02:08:40;9.05;;;2.7;;
39214;SDS011;24932;51.746;14.334;2023-07-31T02:12:40;7.18;;;2.7;;
39214;SDS011;24932;51.746;14.334;2023-07-31T02:16:41;13.82;;;2.53;;
39214;SDS011;24932;51.746;14.334;2023-07-31T02:20:41;8.15;;;2.75;;
39214;SDS011;24932;51.746;14.334;2023-07-31T02:24:40;12.25;;;2.67;;
39214;SDS011;24932;51.746;14.334;2023-07-31T02:28:40;8.02;;;3.3;;
39214;SDS011;24932;51.746;14.334;2023-07-31T02:32:41;5.72;;;2.33;;
39214;SDS011;24932;51.746;14.334;2023-07-31T02:36:41;8.45;;;2.12;;
39214;SDS011;24932;51.746;14.334;2023-07-31T02:40:40;4.05;;;2.42;;
39214;SDS011;24932;51.746;14.334;2023-07-31T02:44:40;11.3;;;2.58;;
39214;SDS011;24932;51.746;14.334;2023-07-31T02:48:40;4.55;;;2.28;;
39214;SDS011;24932;51.746;14.334;2023-07-31T02:52:40;8.55;;;2.17;;
39214;SDS011;24932;51.746;14.334;2023-07-31T02:56:41;5.37;;;2.1;;
39214;SDS011;24932;51.746;14.334;2023-07-31T03:00:41;7.72;;;2.08;;
39214;SDS011;24932;51.746;14.334;2023-07-31T03:04:40;8.8;;;1.9;;
39214;SDS011;24932;51.746;14.334;2023-07-31T03:08:40;4.82;;;2.3;;
39214;SDS011;24932;51.746;14.334;2023-07-31T03:12:39;11.6;;;2.55;;
39214;SDS011;24932;51.746;14.334;2023-07-31T03:16:39;4.53;;;2.17;;
39214;SDS011;24932;51.746;14.334;2023-07-31T03:20:42;8.48;;;2.33;;
39214;SDS011;24932;51.746;14.334;2023-07-31T03:24:40;9.98;;;2.2;;
39214;SDS011;24932;51.746;14.334;2023-07-31T03:28:40;6.7;;;2.7;;
39214;SDS011;24932;51.746;14.334;2023-07-31T03:32:40;9.3;;;2.37;;
39214;SDS011;24932;51.746;14.334;2023-07-31T03:36:41;6.65;;;1.9;;
39214;SDS011;24932;51.746;14.334;2023-07-31T03:40:40;5.37;;;2.1;;
39214;SDS011;24932;51.746;14.334;2023-07-31T03:44:40;8.07;;;2.0;;
39214;SDS011;24932;51.746;14.334;2023-07-31T03:48:40;9.43;;;1.92;;
39214;SDS011;24932;51.746;14.334;2023-07-31T03:52:40;9.65;;;2.25;;
39214;SDS011;24932;51.746;14.334;2023-07-31T03:56:41;6.57;;;2.22;;
39214;SDS011;24932;51.746;14.334;2023-07-31T04:00:41;8.0;;;2.03;;
39214;SDS011;24932;51.746;14.334;2023-07-31T04:04:40;1.87;;;1.52;;
39214;SDS011;24932;51.746;14.334;2023-07-31T04:08:40;6.55;;;1.92;;
39214;SDS011;24932;51.746;14.334;2023-07-31T04:12:40;10.13;;;2.92;;
39214;SDS011;24932;51.746;14.334;2023-07-31T04:16:40;4.28;;;1.75;;
39214;SDS011;24932;51.746;14.334;2023-07-31T04:20:41;4.87;;;2.0;;
39214;SDS011;24932;51.746;14.334;2023-07-31T04:24:40;6.5;;;2.2;;
39214;SDS011;24932;51.746;14.334;2023-07-31T04:28:40;4.97;;;1.85;;
39214;SDS011;24932;51.746;14.334;2023-07-31T04:32:40;5.45;;;2.42;;
39214;SDS011;24932;51.746;14.334;2023-07-31T04:36:40;7.15;;;1.87;;
39214;SDS011;24932;51.746;14.334;2023-07-31T04:40:40;5.07;;;1.98;;
39214;SDS011;24932;51.746;14.334;2023-07-31T04:44:41;5.55;;;1.73;;
39214;SDS011;24932;51.746;14.334;2023-07-31T04:48:40;5.12;;;1.65;;
39214;SDS011;24932;51.746;14.334;2023-07-31T04:52:40;9.27;;;1.9;;
39214;SDS011;24932;51.746;14.334;2023-07-31T04:56:41;4.45;;;2.03;;
39214;SDS011;24932;51.746;14.334;2023-07-31T05:00:40;9.07;;;1.98;;
39214;SDS011;24932;51.746;14.334;2023-07-31T05:04:40;9.3;;;2.6;;
39214;SDS011;24932;51.746;14.334;2023-07-31T05:08:40;4.68;;;2.5;;
39214;SDS011;24932;51.746;14.334;2023-07-31T05:12:40;3.75;;;1.85;;
39214;SDS011;24932;51.746;14.334;2023-07-31T05:16:41;6.6;;;2.3;;
39214;SDS011;24932;51.746;14.334;2023-07-31T05:20:40;4.35;;;2.28;;
39214;SDS011;24932;51.746;14.334;2023-07-31T05:24:41;3.97;;;1.9;;
39214;SDS011;24932;51.746;14.334;2023-07-31T05:28:40;4.93;;;2.0;;
39214;SDS011;24932;51.746;14.334;2023-07-31T05:32:40;3.42;;;2.1;;
39214;SDS011;24932;51.746;14.334;2023-07-31T05:36:41;5.95;;;2.08;;
39214;SDS011;24932;51.746;14.334;2023-07-31T05:40:41;4.7;;;2.17;;
39214;SDS011;24932;51.746;14.334;2023-07-31T05:44:39;6.22;;;2.6;;
39214;SDS011;24932;51.746;14.334;2023-07-31T05:48:40;6.57;;;2.75;;
39214;SDS011;24932;51.746;14.334;2023-07-31T05:52:41;8.13;;;2.3;;
39214;SDS011;24932;51.746;14.334;2023-07-31T05:56:41;5.1;;;1.77;;
39214;SDS011;24932;51.746;14.334;2023-07-31T06:00:40;7.87;;;2.4;;
39214;SDS011;24932;51.746;14.334;2023-07-31T06:04:41;6.62;;;2.65;;
39214;SDS011;24932;51.746;14.334;2023-07-31T06:08:39;6.87;;;2.0;;
39214;SDS011;24932;51.746;14.334;2023-07-31T06:12:41;4.05;;;1.7;;
39214;SDS011;24932;51.746;14.334;2023-07-31T06:16:40;5.07;;;1.83;;
39214;SDS011;24932;51.746;14.334;2023-07-31T06:20:40;5.75;;;1.9;;
39214;SDS011;24932;51.746;14.334;2023-07-31T06:24:40;6.47;;;2.37;;
39214;SDS011;24932;51.746;14.334;2023-07-31T06:28:41;4.32;;;1.75;;
39214;SDS011;24932;51.746;14.334;2023-07-31T06:32:41;5.6;;;2.03;;
39214;SDS011;24932;51.746;14.334;2023-07-31T06:36:40;3.12;;;2.0;;
39214;SDS011;24932;51.746;14.334;2023-07-31T06:40:41;5.3;;;1.8;;
39214;SDS011;24932;51.746;14.334;2023-07-31T06:44:39;5.45;;;2.37;;
39214;SDS011;24932;51.746;14.334;2023-07-31T06:48:40;5.82;;;2.95;;
39214;SDS011;24932;51.746;14.334;2023-07-31T06:52:40;4.03;;;1.85;;
39214;SDS011;24932;51.746;14.334;2023-07-31T06:56:41;2.95;;;1.7;;
39214;SDS011;24932;51.746;14.334;2023-07-31T07:00:40;5.65;;;1.75;;
39214;SDS011;24932;51.746;14.334;2023-07-31T07:04:40;6.93;;;2.17;;
39214;SDS011;24932;51.746;14.334;2023-07-31T07:08:40;3.5;;;1.92;;
39214;SDS011;24932;51.746;14.334;2023-07-31T07:12:40;4.8;;;2.45;;
39214;SDS011;24932;51.746;14.334;2023-07-31T07:16:41;6.62;;;2.25;;
39214;SDS011;24932;51.746;14.334;2023-07-31T07:20:45;5.47;;;2.3;;
39214;SDS011;24932;51.746;14.334;2023-07-31T07:24:41;5.43;;;2.55;;
39214;SDS011;24932;51.746;14.334;2023-07-31T07:28:39;7.03;;;2.95;;
39214;SDS011;24932;51.746;14.334;2023-07-31T07:32:40;9.7;;;3.03;;
39214;SDS011;24932;51.746;14.334;2023-07-31T07:36:41;7.65;;;3.12;;
39214;SDS011;24932;51.746;14.334;2023-07-31T07:40:39;5.72;;;2.87;;
39214;SDS011;24932;51.746;14.334;2023-07-31T07:44:40;7.8;;;3.05;;
39214;SDS011;24932;51.746;14.334;2023-07-31T07:48:39;4.95;;;2.92;;
39214;SDS011;24932;51.746;14.334;2023-07-31T07:52:40;8.13;;;3.17;;
39214;SDS011;24932;51.746;14.334;2023-07-31T07:56:40;8.98;;;2.8;;
39214;SDS011;24932;51.746;14.334;2023-07-31T08:00:40;3.83;;;2.95;;
39214;SDS011;24932;51.746;14.334;2023-07-31T08:04:43;10.07;;;3.05;;
39214;SDS011;24932;51.746;14.334;2023-07-31T08:08:40;6.68;;;3.47;;
39214;SDS011;24932;51.746;14.334;2023-07-31T08:12:41;7.5;;;3.58;;
39214;SDS011;24932;51.746;14.334;2023-07-31T08:16:41;8.68;;;3.2;;
39214;SDS011;24932;51.746;14.334;2023-07-31T08:20:40;7.57;;;3.05;;
39214;SDS011;24932;51.746;14.334;2023-07-31T08:24:40;7.37;;;2.72;;
39214;SDS011;24932;51.746;14.334;2023-07-31T08:28:40;7.07;;;2.83;;
39214;SDS011;24932;51.746;14.334;2023-07-31T08:32:41;7.82;;;3.33;;
39214;SDS011;24932;51.746;14.334;2023-07-31T08:36:41;10.65;;;3.9;;
39214;SDS011;24932;51.746;14.334;2023-07-31T08:40:40;6.9;;;2.8;;
39214;SDS011;24932;51.746;14.334;2023-07-31T08:44:41;9.63;;;4.43;;
39214;SDS011;24932;51.746;14.334;2023-07-31T08:48:41;10.15;;;3.17;;
39214;SDS011;24932;51.746;14.334;2023-07-31T08:52:41;7.6;;;3.75;;
39214;SDS011;24932;51.746;14.334;2023-07-31T08:56:40;3.67;;;2.47;;
39214;SDS011;24932;51.746;14.334;2023-07-31T09:00:40;4.55;;;2.9;;
39214;SDS011;24932;51.746;14.334;2023-07-31T09:04:40;5.97;;;2.83;;
39214;SDS011;24932;51.746;14.334;2023-07-31T09:08:39;4.5;;;2.55;;
39214;SDS011;24932;51.746;14.334;2023-07-31T09:12:41;6.3;;;2.58;;
39214;SDS011;24932;51.746;14.334;2023-07-31T09:16:51;4.32;;;2.08;;
39214;SDS011;24932;51.746;14.334;2023-07-31T09:20:41;4.25;;;2.37;;
39214;SDS011;24932;51.746;14.334;2023-07-31T09:24:40;8.95;;;3.17;;
39214;SDS011;24932;51.746;14.334;2023-07-31T09:28:39;6.65;;;2.4;;
39214;SDS011;24932;51.746;14.334;2023-07-31T09:32:42;6.97;;;2.5;;
39214;SDS011;24932;51.746;14.334;2023-07-31T09:36:41;4.62;;;2.45;;
39214;SDS011;24932;51.746;14.334;2023-07-31T09:40:42;8.43;;;2.75;;
39214;SDS011;24932;51.746;14.334;2023-07-31T09:44:40;6.55;;;2.7;;
39214;SDS011;24932;51.746;14.334;2023-07-31T09:48:40;4.37;;;2.55;;
39214;SDS011;24932;51.746;14.334;2023-07-31T09:52:40;4.18;;;1.9;;
39214;SDS011;24932;51.746;14.334;2023-07-31T09:56:42;3.22;;;2.05;;
39214;SDS011;24932;51.746;14.334;2023-07-31T10:00:40;6.78;;;2.45;;
39214;SDS011;24932;51.746;14.334;2023-07-31T10:04:41;4.28;;;2.1;;
39214;SDS011;24932;51.746;14.334;2023-07-31T10:08:40;3.0;;;2.12;;
39214;SDS011;24932;51.746;14.334;2023-07-31T10:12:41;5.07;;;1.77;;
39214;SDS011;24932;51.746;14.334;2023-07-31T10:16:41;5.65;;;2.1;;
39214;SDS011;24932;51.746;14.334;2023-07-31T10:20:40;3.25;;;2.15;;
39214;SDS011;24932;51.746;14.334;2023-07-31T10:24:40;5.32;;;2.78;;
39214;SDS011;24932;51.746;14.334;2023-07-31T10:28:40;7.6;;;1.9;;
39214;SDS011;24932;51.746;14.334;2023-07-31T10:32:40;4.95;;;2.0;;
39214;SDS011;24932;51.746;14.334;2023-07-31T10:36:41;7.35;;;2.2;;
39214;SDS011;24932;51.746;14.334;2023-07-31T10:40:41;5.72;;;1.92;;
39214;SDS011;24932;51.746;14.334;2023-07-31T10:44:43;7.0;;;2.3;;
39214;SDS011;24932;51.746;14.334;2023-07-31T10:48:39;5.5;;;1.92;;
39214;SDS011;24932;51.746;14.334;2023-07-31T10:52:40;4.72;;;2.6;;
39214;SDS011;24932;51.746;14.334;2023-07-31T10:56:44;2.0;;;1.5;;
39214;SDS011;24932;51.746;14.334;2023-07-31T11:00:41;4.57;;;2.3;;
39214;SDS011;24932;51.746;14.334;2023-07-31T11:04:40;4.82;;;1.95;;
39214;SDS011;24932;51.746;14.334;2023-07-31T11:08:42;3.95;;;2.35;;
39214;SDS011;24932;51.746;14.334;2023-07-31T11:12:40;8.65;;;2.25;;
39214;SDS011;24932;51.746;14.334;2023-07-31T11:16:41;5.43;;;2.0;;
39214;SDS011;24932;51.746;14.334;2023-07-31T11:20:40;7.5;;;2.5;;
39214;SDS011;24932;51.746;14.334;2023-07-31T11:24:40;5.4;;;2.33;;
39214;SDS011;24932;51.746;14.334;2023-07-31T11:28:40;3.47;;;1.85;;
39214;SDS011;24932;51.746;14.334;2023-07-31T11:32:40;2.72;;;1.77;;
39214;SDS011;24932;51.746;14.334;2023-07-31T11:36:40;4.43;;;1.9;;
39214;SDS011;24932;51.746;14.334;2023-07-31T11:40:41;3.03;;;1.5;;
39214;SDS011;24932;51.746;14.334;2023-07-31T11:44:40;6.28;;;2.25;;
39214;SDS011;24932;51.746;14.334;2023-07-31T11:48:41;8.75;;;2.5;;
39214;SDS011;24932;51.746;14.334;2023-07-31T11:52:42;8.98;;;2.5;;
39214;SDS011;24932;51.746;14.334;2023-07-31T11:56:41;5.95;;;2.6;;
39214;SDS011;24932;51.746;14.334;2023-07-31T12:00:40;6.55;;;2.53;;
39214;SDS011;24932;51.746;14.334;2023-07-31T12:04:40;3.1;;;1.75;;
39214;SDS011;24932;51.746;14.334;2023-07-31T12:08:41;3.3;;;2.6;;
39214;SDS011;24932;51.746;14.334;2023-07-31T12:12:40;7.47;;;2.12;;
39214;SDS011;24932;51.746;14.334;2023-07-31T12:16:40;2.45;;;1.9;;
39214;SDS011;24932;51.746;14.334;2023-07-31T12:20:41;4.55;;;2.17;;
39214;SDS011;24932;51.746;14.334;2023-07-31T12:24:41;5.72;;;2.25;;
39214;SDS011;24932;51.746;14.334;2023-07-31T12:28:41;7.15;;;2.6;;
39214;SDS011;24932;51.746;14.334;2023-07-31T12:32:40;4.78;;;2.1;;
39214;SDS011;24932;51.746;14.334;2023-07-31T12:36:41;6.45;;;1.85;;
39214;SDS011;24932;51.746;14.334;2023-07-31T12:40:41;2.25;;;1.48;;
39214;SDS011;24932;51.746;14.334;2023-07-31T12:44:40;11.5;;;2.08;;
39214;SDS011;24932;51.746;14.334;2023-07-31T12:48:40;6.37;;;2.72;;
39214;SDS011;24932;51.746;14.334;2023-07-31T12:52:40;6.75;;;2.03;;
39214;SDS011;24932;51.746;14.334;2023-07-31T12:56:41;2.85;;;2.5;;
39214;SDS011;24932;51.746;14.334;2023-07-31T13:00:40;6.65;;;2.2;;
39214;SDS011;24932;51.746;14.334;2023-07-31T13:04:40;7.35;;;2.08;;
39214;SDS011;24932;51.746;14.334;2023-07-31T13:08:40;2.8;;;2.2;;
39214;SDS011;24932;51.746;14.334;2023-07-31T13:12:41;5.8;;;2.03;;
39214;SDS011;24932;51.746;14.334;2023-07-31T13:16:41;4.6;;;2.28;;
39214;SDS011;24932;51.746;14.334;2023-07-31T13:20:41;3.28;;;2.05;;
39214;SDS011;24932;51.746;14.334;2023-07-31T13:24:41;4.47;;;1.98;;
39214;SDS011;24932;51.746;14.334;2023-07-31T13:28:40;4.35;;;2.03;;
39214;SDS011;24932;51.746;14.334;2023-07-31T13:32:40;2.0;;;1.75;;
39214;SDS011;24932;51.746;14.334;2023-07-31T13:36:40;8.8;;;2.5;;
39214;SDS011;24932;51.746;14.334;2023-07-31T13:40:40;7.7;;;2.2;;
39214;SDS011;24932;51.746;14.334;2023-07-31T13:44:41;2.3;;;1.98;;
39214;SDS011;24932;51.746;14.334;2023-07-31T13:48:39;2.75;;;1.83;;
39214;SDS011;24932;51.746;14.334;2023-07-31T13:52:40;3.62;;;2.12;;
39214;SDS011;24932;51.746;14.334;2023-07-31T13:56:40;10.5;;;3.33;;
39214;SDS011;24932;51.746;14.334;2023-07-31T14:00:40;5.62;;;2.42;;
39214;SDS011;24932;51.746;14.334;2023-07-31T14:04:41;4.5;;;1.77;;
39214;SDS011;24932;51.746;14.334;2023-07-31T14:08:40;2.78;;;2.2;;
39214;SDS011;24932;51.746;14.334;2023-07-31T14:12:43;4.5;;;2.05;;
39214;SDS011;24932;51.746;14.334;2023-07-31T14:16:41;3.05;;;1.73;;
39214;SDS011;24932;51.746;14.334;2023-07-31T14:20:41;3.6;;;2.1;;
39214;SDS011;24932;51.746;14.334;2023-07-31T14:24:40;4.03;;;2.12;;
39214;SDS011;24932;51.746;14.334;2023-07-31T14:28:40;7.2;;;2.12;;
39214;SDS011;24932;51.746;14.334;2023-07-31T14:32:39;4.03;;;1.85;;
39214;SDS011;24932;51.746;14.334;2023-07-31T14:36:41;6.43;;;2.3;;
39214;SDS011;24932;51.746;14.334;2023-07-31T14:40:41;3.83;;;1.7;;
39214;SDS011;24932;51.746;14.334;2023-07-31T14:44:40;5.72;;;2.0;;
39214;SDS011;24932;51.746;14.334;2023-07-31T14:48:40;3.65;;;2.08;;
39214;SDS011;24932;51.746;14.334;2023-07-31T14:52:40;3.5;;;1.95;;
39214;SDS011;24932;51.746;14.334;2023-07-31T14:56:41;5.95;;;2.1;;
39214;SDS011;24932;51.746;14.334;2023-07-31T15:00:41;4.9;;;2.75;;
39214;SDS011;24932;51.746;14.334;2023-07-31T15:04:41;7.9;;;2.1;;
39214;SDS011;24932;51.746;14.334;2023-07-31T15:08:40;2.0;;;1.65;;
39214;SDS011;24932;51.746;14.334;2023-07-31T15:12:41;3.83;;;2.2;;
39214;SDS011;24932;51.746;14.334;2023-07-31T15:16:41;6.18;;;2.53;;
39214;SDS011;24932;51.746;14.334;2023-07-31T15:20:40;2.7;;;1.9;;
39214;SDS011;24932;51.746;14.334;2023-07-31T15:24:41;5.87;;;2.5;;
39214;SDS011;24932;51.746;14.334;2023-07-31T15:28:41;7.28;;;2.5;;
39214;SDS011;24932;51.746;14.334;2023-07-31T15:32:40;4.78;;;2.42;;
39214;SDS011;24932;51.746;14.334;2023-07-31T15:36:41;3.22;;;2.1;;
39214;SDS011;24932;51.746;14.334;2023-07-31T15:40:40;5.93;;;2.65;;
39214;SDS011;24932;51.746;14.334;2023-07-31T15:44:40;3.1;;;2.15;;
39214;SDS011;24932;51.746;14.334;2023-07-31T15:48:41;4.1;;;2.37;;
39214;SDS011;24932;51.746;14.334;2023-07-31T15:52:40;3.25;;;2.25;;
39214;SDS011;24932;51.746;14.334;2023-07-31T15:56:40;4.97;;;2.7;;
39214;SDS011;24932;51.746;14.334;2023-07-31T16:00:40;4.75;;;1.87;;
39214;SDS011;24932;51.746;14.334;2023-07-31T16:04:39;3.05;;;2.1;;
39214;SDS011;24932;51.746;14.334;2023-07-31T16:08:40;3.17;;;2.25;;
39214;SDS011;24932;51.746;14.334;2023-07-31T16:12:40;5.28;;;2.25;;
39214;SDS011;24932;51.746;14.334;2023-07-31T16:16:41;4.82;;;2.42;;
39214;SDS011;24932;51.746;14.334;2023-07-31T16:20:41;4.47;;;2.28;;
39214;SDS011;24932;51.746;14.334;2023-07-31T16:24:40;5.8;;;3.03;;
39214;SDS011;24932;51.746;14.334;2023-07-31T16:28:39;2.95;;;2.4;;
39214;SDS011;24932;51.746;14.334;2023-07-31T16:32:40;2.95;;;2.1;;
39214;SDS011;24932;51.746;14.334;2023-07-31T16:36:41;3.6;;;2.1;;
39214;SDS011;24932;51.746;14.334;2023-07-31T16:40:40;2.62;;;1.77;;
39214;SDS011;24932;51.746;14.334;2023-07-31T16:44:40;5.18;;;2.05;;
39214;SDS011;24932;51.746;14.334;2023-07-31T16:48:41;2.25;;;1.67;;
39214;SDS011;24932;51.746;14.334;2023-07-31T16:52:40;3.53;;;2.37;;
39214;SDS011;24932;51.746;14.334;2023-07-31T16:56:59;2.37;;;2.17;;
39214;SDS011;24932;51.746;14.334;2023-07-31T17:00:40;2.3;;;2.1;;
39214;SDS011;24932;51.746;14.334;2023-07-31T17:04:41;4.4;;;2.4;;
39214;SDS011;24932;51.746;14.334;2023-07-31T17:08:40;4.72;;;2.6;;
39214;SDS011;24932;51.746;14.334;2023-07-31T17:12:40;4.07;;;2.47;;
39214;SDS011;24932;51.746;14.334;2023-07-31T17:16:40;2.55;;;1.92;;
39214;SDS011;24932;51.746;14.334;2023-07-31T17:20:40;1.87;;;1.58;;
39214;SDS011;24932;51.746;14.334;2023-07-31T17:24:40;4.1;;;2.28;;
39214;SDS011;24932;51.746;14.334;2023-07-31T17:28:40;4.78;;;2.17;;
39214;SDS011;24932;51.746;14.334;2023-07-31T17:32:41;3.05;;;2.12;;
39214;SDS011;24932;51.746;14.334;2023-07-31T17:36:41;6.0;;;2.25;;
39214;SDS011;24932;51.746;14.334;2023-07-31T17:40:41;4.68;;;2.2;;
39214;SDS011;24932;51.746;14.334;2023-07-31T17:44:40;6.7;;;2.05;;
39214;SDS011;24932;51.746;14.334;2023-07-31T17:48:40;2.2;;;1.6;;
39214;SDS011;24932;51.746;14.334;2023-07-31T17:52:40;2.45;;;2.03;;
39214;SDS011;24932;51.746;14.334;2023-07-31T17:56:41;5.1;;;2.85;;
39214;SDS011;24932;51.746;14.334;2023-07-31T18:00:40;3.75;;;1.7;;
39214;SDS011;24932;51.746;14.334;2023-07-31T18:04:40;4.78;;;2.15;;
39214;SDS011;24932;51.746;14.334;2023-07-31T18:08:40;2.95;;;1.98;;
39214;SDS011;24932;51.746;14.334;2023-07-31T18:12:40;6.25;;;2.25;;
39214;SDS011;24932;51.746;14.334;2023-07-31T18:16:41;8.7;;;2.85;;
39214;SDS011;24932;51.746;14.334;2023-07-31T18:20:40;6.28;;;2.12;;
39214;SDS011;24932;51.746;14.334;2023-07-31T18:24:40;5.2;;;2.72;;
39214;SDS011;24932;51.746;14.334;2023-07-31T18:28:41;7.7;;;2.85;;
39214;SDS011;24932;51.746;14.334;2023-07-31T18:32:41;8.13;;;2.35;;
39214;SDS011;24932;51.746;14.334;2023-07-31T18:36:41;5.07;;;2.5;;
39214;SDS011;24932;51.746;14.334;2023-07-31T18:40:41;8.07;;;2.28;;
39214;SDS011;24932;51.746;14.334;2023-07-31T18:44:40;4.97;;;2.78;;
39214;SDS011;24932;51.746;14.334;2023-07-31T18:48:40;3.83;;;2.35;;
39214;SDS011;24932;51.746;14.334;2023-07-31T18:52:40;5.65;;;2.05;;
39214;SDS011;24932;51.746;14.334;2023-07-31T18:56:41;4.62;;;2.6;;
39214;SDS011;24932;51.746;14.334;2023-07-31T19:00:40;6.55;;;2.47;;
39214;SDS011;24932;51.746;14.334;2023-07-31T19:04:41;7.2;;;2.95;;
39214;SDS011;24932;51.746;14.334;2023-07-31T19:08:40;4.7;;;2.55;;
39214;SDS011;24932;51.746;14.334;2023-07-31T19:12:41;7.8;;;3.12;;
39214;SDS011;24932;51.746;14.334;2023-07-31T19:16:41;6.12;;;2.9;;
39214;SDS011;24932;51.746;14.334;2023-07-31T19:20:40;8.77;;;3.28;;
39214;SDS011;24932;51.746;14.334;2023-07-31T19:24:42;4.78;;;2.92;;
39214;SDS011;24932;51.746;14.334;2023-07-31T19:28:40;7.32;;;3.28;;
39214;SDS011;24932;51.746;14.334;2023-07-31T19:32:40;7.5;;;2.62;;
39214;SDS011;24932;51.746;14.334;2023-07-31T19:36:41;6.3;;;2.65;;
39214;SDS011;24932;51.746;14.334;2023-07-31T19:40:40;4.78;;;2.7;;
39214;SDS011;24932;51.746;14.334;2023-07-31T19:44:40;4.18;;;2.47;;
39214;SDS011;24932;51.746;14.334;2023-07-31T19:48:40;6.85;;;2.62;;
39214;SDS011;24932;51.746;14.334;2023-07-31T19:52:40;7.07;;;3.45;;
39214;SDS011;24932;51.746;14.334;2023-07-31T19:56:41;7.0;;;3.35;;
39214;SDS011;24932;51.746;14.334;2023-07-31T20:00:40;4.12;;;2.67;;
39214;SDS011;24932;51.746;14.334;2023-07-31T20:04:40;5.05;;;2.37;;
39214;SDS011;24932;51.746;14.334;2023-07-31T20:08:40;5.4;;;2.7;;
39214;SDS011;24932;51.746;14.334;2023-07-31T20:12:41;5.4;;;2.83;;
39214;SDS011;24932;51.746;14.334;2023-07-31T20:16:40;4.97;;;1.95;;
39214;SDS011;24932;51.746;14.334;2023-07-31T20:20:40;5.05;;;2.28;;
39214;SDS011;24932;51.746;14.334;2023-07-31T20:24:40;4.8;;;2.65;;
39214;SDS011;24932;51.746;14.334;2023-07-31T20:28:41;3.6;;;2.4;;
39214;SDS011;24932;51.746;14.334;2023-07-31T20:32:40;5.4;;;2.6;;
39214;SDS011;24932;51.746;14.334;2023-07-31T20:36:41;4.6;;;2.58;;
39214;SDS011;24932;51.746;14.334;2023-07-31T20:40:40;14.9;;;3.45;;
39214;SDS011;24932;51.746;14.334;2023-07-31T20:44:40;4.32;;;2.42;;
39214;SDS011;24932;51.746;14.334;2023-07-31T20:48:40;6.0;;;3.1;;
39214;SDS011;24932;51.746;14.334;2023-07-31T20:52:40;5.2;;;2.75;;
39214;SDS011;24932;51.746;14.334;2023-07-31T20:56:40;4.6;;;2.6;;
39214;SDS011;24932;51.746;14.334;2023-07-31T21:00:40;6.25;;;2.28;;
39214;SDS011;24932;51.746;14.334;2023-07-31T21:04:41;7.95;;;2.72;;
39214;SDS011;24932;51.746;14.334;2023-07-31T21:08:40;8.63;;;2.83;;
39214;SDS011;24932;51.746;14.334;2023-07-31T21:12:40;5.12;;;2.42;;
39214;SDS011;24932;51.746;14.334;2023-07-31T21:16:40;10.73;;;2.78;;
39214;SDS011;24932;51.746;14.334;2023-07-31T21:20:44;7.8;;;2.15;;
39214;SDS011;24932;51.746;14.334;2023-07-31T21:24:40;4.35;;;2.5;;
39214;SDS011;24932;51.746;14.334;2023-07-31T21:28:40;7.15;;;2.58;;
39214;SDS011;24932;51.746;14.334;2023-07-31T21:32:40;3.97;;;2.15;;
39214;SDS011;24932;51.746;14.334;2023-07-31T21:36:41;5.85;;;3.15;;
39214;SDS011;24932;51.746;14.334;2023-07-31T21:40:40;8.23;;;3.5;;
39214;SDS011;24932;51.746;14.334;2023-07-31T21:44:40;7.82;;;2.5;;
39214;SDS011;24932;51.746;14.334;2023-07-31T21:48:40;6.22;;;2.8;;
39214;SDS011;24932;51.746;14.334;2023-07-31T21:52:40;5.03;;;2.62;;
39214;SDS011;24932;51.746;14.334;2023-07-31T21:56:40;5.82;;;2.53;;
39214;SDS011;24932;51.746;14.334;2023-07-31T22:00:39;4.35;;;2.7;;
39214;SDS011;24932;51.746;14.334;2023-07-31T22:04:40;7.5;;;2.72;;
39214;SDS011;24932;51.746;14.334;2023-07-31T22:08:40;6.03;;;2.95;;
39214;SDS011;24932;51.746;14.334;2023-07-31T22:12:40;7.05;;;2.78;;
39214;SDS011;24932;51.746;14.334;2023-07-31T22:16:41;5.2;;;2.97;;
39214;SDS011;24932;51.746;14.334;2023-07-31T22:20:41;3.42;;;2.83;;
39214;SDS011;24932;51.746;14.334;2023-07-31T22:24:40;7.5;;;2.47;;
39214;SDS011;24932;51.746;14.334;2023-07-31T22:28:41;7.0;;;2.87;;
39214;SDS011;24932;51.746;14.334;2023-07-31T22:32:40;6.7;;;2.9;;
39214;SDS011;24932;51.746;14.334;2023-07-31T22:36:41;7.5;;;3.17;;
39214;SDS011;24932;51.746;14.334;2023-07-31T22:40:41;5.57;;;3.0;;
39214;SDS011;24932;51.746;14.334;2023-07-31T22:44:40;6.82;;;3.1;;
39214;SDS011;24932;51.746;14.334;2023-07-31T22:48:41;5.0;;;2.65;;
39214;SDS011;24932;51.746;14.334;2023-07-31T22:52:40;9.15;;;3.4;;
39214;SDS011;24932;51.746;14.334;2023-07-31T22:56:40;8.6;;;3.2;;
39214;SDS011;24932;51.746;14.334;2023-07-31T23:00:41;6.2;;;3.42;;
39214;SDS011;24932;51.746;14.334;2023-07-31T23:04:40;7.22;;;3.1;;
39214;SDS011;24932;51.746;14.334;2023-07-31T23:08:40;10.07;;;2.6;;
39214;SDS011;24932;51.746;14.334;2023-07-31T23:12:40;6.5;;;3.08;;
39214;SDS011;24932;51.746;14.334;2023-07-31T23:16:41;8.25;;;2.97;;
39214;SDS011;24932;51.746;14.334;2023-07-31T23:20:40;6.68;;;3.35;;
39214;SDS011;24932;51.746;14.334;2023-07-31T23:24:41;8.05;;;3.1;;
39214;SDS011;24932;51.746;14.334;2023-07-31T23:28:40;10.2;;;3.1;;
39214;SDS011;24932;51.746;14.334;2023-07-31T23:32:40;8.52;;;3.22;;
39214;SDS011;24932;51.746;14.334;2023-07-31T23:36:41;7.47;;;3.08;;
39214;SDS011;24932;51.746;14.334;2023-07-31T23:40:40;6.65;;;3.22;;
39214;SDS011;24932;51.746;14.334;2023-07-31T23:44:40;6.93;;;3.2;;
39214;SDS011;24932;51.746;14.334;2023-07-31T23:48:40;4.37;;;2.17;;
39214;SDS011;24932;51.746;14.334;2023-07-31T23:52:41;7.03;;;2.83;;
39214;SDS011;24932;51.746;14.334;2023-07-31T23:56:41;6.4;;;3.17;;
